createdAt,value
2019-05-12T00:00:48.449Z,958.23
2019-05-12T00:01:48.089Z,958.13
2019-05-12T00:02:48.446Z,958.19
2019-05-12T00:03:48.448Z,958.21
2019-05-12T00:04:48.690Z,958.22
2019-05-12T00:05:48.331Z,958.22
2019-05-12T00:06:47.898Z,958.24
2019-05-12T00:07:48.867Z,958.23
2019-05-12T00:08:48.316Z,958.27
2019-05-12T00:09:47.917Z,958.28
2019-05-12T00:10:47.849Z,958.24
2019-05-12T00:11:48.399Z,958.32
2019-05-12T00:12:48.180Z,958.30
2019-05-12T00:13:47.812Z,958.32
2019-05-12T00:14:48.507Z,958.30
2019-05-12T00:15:47.678Z,958.34
2019-05-12T00:16:48.921Z,958.33
2019-05-12T00:17:48.116Z,958.36
2019-05-12T00:18:48.314Z,958.41
2019-05-12T00:19:47.933Z,958.28
2019-05-12T00:20:47.665Z,958.41
2019-05-12T00:21:48.332Z,958.38
2019-05-12T00:22:48.150Z,958.35
2019-05-12T00:23:47.646Z,958.35
2019-05-12T00:24:47.891Z,958.43
2019-05-12T00:25:48.014Z,958.31
2019-05-12T00:26:47.781Z,958.39
2019-05-12T00:27:48.543Z,958.46
2019-05-12T00:28:48.236Z,958.41
2019-05-12T00:29:48.424Z,958.39
2019-05-12T00:30:48.589Z,958.44
2019-05-12T00:31:47.778Z,958.51
2019-05-12T00:32:47.840Z,958.41
2019-05-12T00:33:48.055Z,958.44
2019-05-12T00:34:48.052Z,958.49
2019-05-12T00:35:48.235Z,958.49
2019-05-12T00:36:48.348Z,958.47
2019-05-12T00:37:48.527Z,958.50
2019-05-12T00:38:48.431Z,958.55
2019-05-12T00:39:47.843Z,958.59
2019-05-12T00:40:47.936Z,958.52
2019-05-12T00:41:48.121Z,958.55
2019-05-12T00:42:48.415Z,958.59
2019-05-12T00:43:46.164Z,958.60
2019-05-12T00:44:47.851Z,958.51
2019-05-12T00:45:48.095Z,958.54
2019-05-12T00:46:46.129Z,958.52
2019-05-12T00:47:48.019Z,958.55
2019-05-12T00:48:48.195Z,958.53
2019-05-12T00:49:48.006Z,958.49
2019-05-12T00:50:48.392Z,958.52
2019-05-12T00:51:48.360Z,958.47
2019-05-12T00:52:46.048Z,958.45
2019-05-12T00:53:47.930Z,958.49
2019-05-12T00:54:48.098Z,958.46
2019-05-12T00:55:47.635Z,958.43
2019-05-12T00:56:48.016Z,958.50
2019-05-12T00:57:48.018Z,958.41
2019-05-12T00:58:45.981Z,958.50
2019-05-12T00:59:47.815Z,958.44
2019-05-12T01:00:48.110Z,958.45
2019-05-12T01:01:48.060Z,958.53
2019-05-12T01:02:48.477Z,958.50
2019-05-12T01:03:45.924Z,958.52
2019-05-12T01:04:45.913Z,958.51
2019-05-12T01:05:45.928Z,958.50
2019-05-12T01:06:45.893Z,958.60
2019-05-12T01:07:45.884Z,958.59
2019-05-12T01:08:45.884Z,958.52
2019-05-12T01:09:45.863Z,958.53
2019-05-12T01:10:47.781Z,958.59
2019-05-12T01:11:47.994Z,958.67
2019-05-12T01:12:45.848Z,958.59
2019-05-12T01:13:45.813Z,958.69
2019-05-12T01:14:47.779Z,958.66
2019-05-12T01:15:48.033Z,958.69
2019-05-12T01:16:45.797Z,958.65
2019-05-12T01:17:47.778Z,958.70
2019-05-12T01:18:47.854Z,958.70
2019-05-12T01:19:48.199Z,958.72
2019-05-12T01:20:47.797Z,958.78
2019-05-12T01:21:47.983Z,958.70
2019-05-12T01:22:45.739Z,958.79
2019-05-12T01:23:59.807Z,958.84
2019-05-12T01:24:48.309Z,958.79
2019-05-12T01:25:47.797Z,958.85
2019-05-12T01:26:47.582Z,958.81
2019-05-12T01:27:48.195Z,958.83
2019-05-12T01:28:45.655Z,958.94
2019-05-12T01:29:47.905Z,958.83
2019-05-12T01:30:47.777Z,958.91
2019-05-12T01:31:45.635Z,958.91
2019-05-12T01:32:45.638Z,958.93
2019-05-12T01:33:45.612Z,958.86
2019-05-12T01:34:45.596Z,958.95
2019-05-12T01:35:48.320Z,958.94
2019-05-12T01:36:45.579Z,958.95
2019-05-12T01:37:45.585Z,958.98
2019-05-12T01:38:48.121Z,959.04
2019-05-12T01:39:45.565Z,959.02
2019-05-12T01:40:47.500Z,959.00
2019-05-12T01:41:48.009Z,959.09
2019-05-12T01:42:45.544Z,959.08
2019-05-12T01:43:45.543Z,959.05
2019-05-12T01:44:48.056Z,959.08
2019-05-12T01:45:45.472Z,959.14
2019-05-12T01:46:45.493Z,959.09
2019-05-12T01:47:45.476Z,959.10
2019-05-12T01:48:45.519Z,959.17
2019-05-12T01:49:45.422Z,959.23
2019-05-12T01:50:47.445Z,959.22
2019-05-12T01:51:47.544Z,959.22
2019-05-12T01:52:47.715Z,959.21
2019-05-12T01:53:45.443Z,959.17
2019-05-12T01:54:45.363Z,959.27
2019-05-12T01:55:45.399Z,959.23
2019-05-12T01:56:45.365Z,959.34
2019-05-12T01:57:45.354Z,959.31
2019-05-12T01:58:45.323Z,959.38
2019-05-12T01:59:45.322Z,959.38
2019-05-12T02:00:45.316Z,959.36
2019-05-12T02:01:45.313Z,959.43
2019-05-12T02:02:45.292Z,959.39
2019-05-12T02:03:45.283Z,959.43
2019-05-12T02:04:45.270Z,959.46
2019-05-12T02:05:45.250Z,959.52
2019-05-12T02:06:45.253Z,959.43
2019-05-12T02:07:47.784Z,959.48
2019-05-12T02:08:47.620Z,959.53
2019-05-12T02:09:45.228Z,959.49
2019-05-12T02:10:45.216Z,959.36
2019-05-12T02:11:45.186Z,959.46
2019-05-12T02:12:45.196Z,959.45
2019-05-12T02:13:45.169Z,959.46
2019-05-12T02:14:45.162Z,959.50
2019-05-12T02:15:45.143Z,959.46
2019-05-12T02:16:45.130Z,959.54
2019-05-12T02:17:45.139Z,959.53
2019-05-12T02:18:45.112Z,959.54
2019-05-12T02:19:45.178Z,959.55
2019-05-12T02:20:45.088Z,959.59
2019-05-12T02:21:45.072Z,959.60
2019-05-12T02:22:45.099Z,959.59
2019-05-12T02:23:45.051Z,959.57
2019-05-12T02:24:45.043Z,959.60
2019-05-12T02:25:45.060Z,959.60
2019-05-12T02:26:45.054Z,959.60
2019-05-12T02:27:45.041Z,959.60
2019-05-12T02:28:45.032Z,959.66
2019-05-12T02:29:44.998Z,959.57
2019-05-12T02:30:44.992Z,959.73
2019-05-12T02:31:44.973Z,959.68
2019-05-12T02:32:52.397Z,959.71
2019-05-12T02:33:46.005Z,959.70
2019-05-12T02:34:45.713Z,959.65
2019-05-12T02:35:44.950Z,959.73
2019-05-12T02:36:45.131Z,959.70
2019-05-12T02:37:45.339Z,959.66
2019-05-12T02:38:45.420Z,959.73
2019-05-12T02:39:45.054Z,959.80
2019-05-12T02:40:45.024Z,959.75
2019-05-12T02:41:45.144Z,959.79
2019-05-12T02:42:46.390Z,959.78
2019-05-12T02:43:45.904Z,959.92
2019-05-12T02:44:44.830Z,959.83
2019-05-12T02:45:44.833Z,959.85
2019-05-12T02:46:44.949Z,959.90
2019-05-12T02:47:45.878Z,959.91
2019-05-12T02:48:45.117Z,959.94
2019-05-12T02:49:44.987Z,959.82
2019-05-12T02:50:45.276Z,959.94
2019-05-12T02:51:45.552Z,959.99
2019-05-12T02:52:44.763Z,959.98
2019-05-12T02:53:46.949Z,960.00
2019-05-12T02:54:54.423Z,960.04
2019-05-12T02:55:45.711Z,960.10
2019-05-12T02:56:45.001Z,960.12
2019-05-12T02:57:45.322Z,960.09
2019-05-12T02:58:45.378Z,960.16
2019-05-12T02:59:44.914Z,960.06
2019-05-12T03:00:45.529Z,960.15
2019-05-12T03:01:45.295Z,960.06
2019-05-12T03:02:44.632Z,960.17
2019-05-12T03:03:44.649Z,960.16
2019-05-12T03:04:44.608Z,960.11
2019-05-12T03:05:44.615Z,960.19
2019-05-12T03:06:44.783Z,960.20
2019-05-12T03:07:44.817Z,960.26
2019-05-12T03:08:44.950Z,960.20
2019-05-12T03:09:44.825Z,960.23
2019-05-12T03:10:44.954Z,960.35
2019-05-12T03:11:44.809Z,960.33
2019-05-12T03:12:45.114Z,960.30
2019-05-12T03:13:44.944Z,960.33
2019-05-12T03:14:44.878Z,960.43
2019-05-12T03:15:44.711Z,960.43
2019-05-12T03:16:45.363Z,960.43
2019-05-12T03:17:44.534Z,960.51
2019-05-12T03:18:45.092Z,960.55
2019-05-12T03:19:44.872Z,960.51
2019-05-12T03:20:45.460Z,960.55
2019-05-12T03:21:44.452Z,960.62
2019-05-12T03:22:44.985Z,960.64
2019-05-12T03:23:44.980Z,960.59
2019-05-12T03:24:44.983Z,960.60
2019-05-12T03:25:45.582Z,960.43
2019-05-12T03:26:45.141Z,960.69
2019-05-12T03:27:44.646Z,960.63
2019-05-12T03:28:44.699Z,960.60
2019-05-12T03:29:44.989Z,960.65
2019-05-12T03:30:48.316Z,960.65
2019-05-12T03:31:48.709Z,960.69
2019-05-12T03:32:47.200Z,960.77
2019-05-12T03:33:52.020Z,960.69
2019-05-12T03:34:47.846Z,960.78
2019-05-12T03:35:52.255Z,960.81
2019-05-12T03:36:50.692Z,960.81
2019-05-12T03:37:45.442Z,960.81
2019-05-12T03:38:44.935Z,960.88
2019-05-12T03:39:44.807Z,960.89
2019-05-12T03:40:45.090Z,960.84
2019-05-12T03:41:44.671Z,961.01
2019-05-12T03:42:44.612Z,960.81
2019-05-12T03:43:44.997Z,960.92
2019-05-12T03:44:44.592Z,961.08
2019-05-12T03:45:45.282Z,960.99
2019-05-12T03:46:45.561Z,961.03
2019-05-12T03:47:45.574Z,961.07
2019-05-12T03:48:45.417Z,960.98
2019-05-12T03:49:45.412Z,961.06
2019-05-12T03:50:46.167Z,961.15
2019-05-12T03:51:45.627Z,961.11
2019-05-12T03:52:45.029Z,961.10
2019-05-12T03:53:45.503Z,961.19
2019-05-12T03:54:45.153Z,961.18
2019-05-12T03:55:46.875Z,961.21
2019-05-12T03:56:45.021Z,961.22
2019-05-12T03:57:44.981Z,961.25
2019-05-12T03:58:45.219Z,961.25
2019-05-12T03:59:44.997Z,961.24
2019-05-12T04:00:44.670Z,961.30
2019-05-12T04:01:45.103Z,961.36
2019-05-12T04:02:45.438Z,961.33
2019-05-12T04:03:45.198Z,961.43
2019-05-12T04:04:45.318Z,961.35
2019-05-12T04:05:45.243Z,961.50
2019-05-12T04:06:45.243Z,961.46
2019-05-12T04:07:45.009Z,961.47
2019-05-12T04:08:45.620Z,961.60
2019-05-12T04:09:45.089Z,961.57
2019-05-12T04:10:45.331Z,961.53
2019-05-12T04:11:44.536Z,961.53
2019-05-12T04:12:44.817Z,961.55
2019-05-12T04:13:45.173Z,961.67
2019-05-12T04:14:44.953Z,961.65
2019-05-12T04:15:45.454Z,961.65
2019-05-12T04:16:45.167Z,961.67
2019-05-12T04:17:45.159Z,961.73
2019-05-12T04:18:45.044Z,961.72
2019-05-12T04:19:44.745Z,961.75
2019-05-12T04:20:45.237Z,961.83
2019-05-12T04:21:44.755Z,961.79
2019-05-12T04:22:44.597Z,961.74
2019-05-12T04:23:44.431Z,961.83
2019-05-12T04:24:44.601Z,961.83
2019-05-12T04:25:52.904Z,961.89
2019-05-12T04:26:45.123Z,961.93
2019-05-12T04:27:45.136Z,961.98
2019-05-12T04:28:45.587Z,962.06
2019-05-12T04:29:44.215Z,961.96
2019-05-12T04:30:44.496Z,962.15
2019-05-12T04:31:44.346Z,962.01
2019-05-12T04:32:45.025Z,962.12
2019-05-12T04:33:45.199Z,962.11
2019-05-12T04:34:44.708Z,962.07
2019-05-12T04:35:45.146Z,962.14
2019-05-12T04:36:44.998Z,962.08
2019-05-12T04:37:44.996Z,962.18
2019-05-12T04:38:44.955Z,962.28
2019-05-12T04:39:44.719Z,962.20
2019-05-12T04:40:45.023Z,962.13
2019-05-12T04:41:44.728Z,962.28
2019-05-12T04:42:45.117Z,962.29
2019-05-12T04:43:44.826Z,962.35
2019-05-12T04:44:44.837Z,962.37
2019-05-12T04:45:45.158Z,962.42
2019-05-12T04:46:45.002Z,962.45
2019-05-12T04:47:44.987Z,962.48
2019-05-12T04:48:45.312Z,962.54
2019-05-12T04:49:45.203Z,962.49
2019-05-12T04:50:45.244Z,962.57
2019-05-12T04:51:45.246Z,962.57
2019-05-12T04:52:44.542Z,962.56
2019-05-12T04:53:44.843Z,962.67
2019-05-12T04:54:44.525Z,962.60
2019-05-12T04:55:44.529Z,962.65
2019-05-12T04:56:44.567Z,962.70
2019-05-12T04:57:44.996Z,962.70
2019-05-12T04:58:45.003Z,962.72
2019-05-12T04:59:45.092Z,962.72
2019-05-12T05:00:44.820Z,962.77
2019-05-12T05:01:45.347Z,962.81
2019-05-12T05:02:45.574Z,962.78
2019-05-12T05:03:44.272Z,962.87
2019-05-12T05:04:44.138Z,962.85
2019-05-12T05:05:44.403Z,962.84
2019-05-12T05:06:44.825Z,962.88
2019-05-12T05:07:44.807Z,962.88
2019-05-12T05:08:44.235Z,962.92
2019-05-12T05:09:44.286Z,962.99
2019-05-12T05:10:44.373Z,962.96
2019-05-12T05:11:45.055Z,963.03
2019-05-12T05:12:44.904Z,963.05
2019-05-12T05:13:44.354Z,963.06
2019-05-12T05:14:44.514Z,963.03
2019-05-12T05:15:44.659Z,963.09
2019-05-12T05:16:45.121Z,963.13
2019-05-12T05:17:44.130Z,963.17
2019-05-12T05:18:43.971Z,963.17
2019-05-12T05:19:44.128Z,963.23
2019-05-12T05:20:43.826Z,963.25
2019-05-12T05:21:43.781Z,963.26
2019-05-12T05:22:44.019Z,963.21
2019-05-12T05:23:44.287Z,963.32
2019-05-12T05:24:44.397Z,963.33
2019-05-12T05:25:43.541Z,963.35
2019-05-12T05:26:43.622Z,963.43
2019-05-12T05:27:44.391Z,963.38
2019-05-12T05:28:43.660Z,963.47
2019-05-12T05:29:43.802Z,963.48
2019-05-12T05:30:44.087Z,963.52
2019-05-12T05:31:44.159Z,963.54
2019-05-12T05:32:44.433Z,963.53
2019-05-12T05:33:43.577Z,963.64
2019-05-12T05:34:46.205Z,963.61
2019-05-12T05:35:43.968Z,963.62
2019-05-12T05:36:43.433Z,963.62
2019-05-12T05:37:44.271Z,963.68
2019-05-12T05:38:43.718Z,963.71
2019-05-12T05:39:48.285Z,963.76
2019-05-12T05:40:43.899Z,963.71
2019-05-12T05:41:48.821Z,963.75
2019-05-12T05:42:44.162Z,963.77
2019-05-12T05:43:43.781Z,963.72
2019-05-12T05:44:43.461Z,963.83
2019-05-12T05:45:43.849Z,963.83
2019-05-12T05:46:48.144Z,963.81
2019-05-12T05:47:44.269Z,963.84
2019-05-12T05:48:44.057Z,963.86
2019-05-12T05:49:43.405Z,963.92
2019-05-12T05:50:43.885Z,963.92
2019-05-12T05:51:48.332Z,963.97
2019-05-12T05:52:43.947Z,963.96
2019-05-12T05:53:44.239Z,963.98
2019-05-12T05:54:43.988Z,964.08
2019-05-12T05:55:44.239Z,964.02
2019-05-12T05:56:56.944Z,964.07
2019-05-12T05:57:44.440Z,964.10
2019-05-12T05:58:47.192Z,964.09
2019-05-12T05:59:44.674Z,964.08
2019-05-12T06:00:43.463Z,964.17
2019-05-12T06:01:47.123Z,964.13
2019-05-12T06:02:44.267Z,964.17
2019-05-12T06:03:44.154Z,964.14
2019-05-12T06:04:47.746Z,964.22
2019-05-12T06:05:43.631Z,964.17
2019-05-12T06:06:50.793Z,964.23
2019-05-12T06:07:44.263Z,964.19
2019-05-12T06:08:44.276Z,964.23
2019-05-12T06:09:43.263Z,964.23
2019-05-12T06:10:43.480Z,964.30
2019-05-12T06:11:43.771Z,964.26
2019-05-12T06:12:48.644Z,964.36
2019-05-12T06:13:44.287Z,964.25
2019-05-12T06:14:46.710Z,964.31
2019-05-12T06:15:43.536Z,964.32
2019-05-12T06:16:43.384Z,964.33
2019-05-12T06:17:43.899Z,964.44
2019-05-12T06:18:43.966Z,964.39
2019-05-12T06:19:43.776Z,964.41
2019-05-12T06:20:43.746Z,964.45
2019-05-12T06:21:44.005Z,964.46
2019-05-12T06:22:43.747Z,964.39
2019-05-12T06:23:43.439Z,964.51
2019-05-12T06:24:44.183Z,964.59
2019-05-12T06:25:49.393Z,964.56
2019-05-12T06:26:56.664Z,964.60
2019-05-12T06:27:44.378Z,964.67
2019-05-12T06:28:44.031Z,964.63
2019-05-12T06:29:43.716Z,964.69
2019-05-12T06:30:45.028Z,964.57
2019-05-12T06:31:44.164Z,964.64
2019-05-12T06:32:50.089Z,964.58
2019-05-12T06:33:44.693Z,964.67
2019-05-12T06:34:43.564Z,964.77
2019-05-12T06:35:45.142Z,964.75
2019-05-12T06:36:44.107Z,964.75
2019-05-12T06:37:44.351Z,964.75
2019-05-12T06:38:43.483Z,964.71
2019-05-12T06:39:43.577Z,964.73
2019-05-12T06:40:42.967Z,964.77
2019-05-12T06:41:44.252Z,964.81
2019-05-12T06:42:43.581Z,964.77
2019-05-12T06:43:45.160Z,964.78
2019-05-12T06:44:43.760Z,964.78
2019-05-12T06:45:45.081Z,964.83
2019-05-12T06:46:44.109Z,964.86
2019-05-12T06:47:47.446Z,964.85
2019-05-12T06:48:45.382Z,964.88
2019-05-12T06:49:43.984Z,964.87
2019-05-12T06:50:44.108Z,964.90
2019-05-12T06:51:44.327Z,964.91
2019-05-12T06:52:46.791Z,964.96
2019-05-12T06:53:44.352Z,964.88
2019-05-12T06:54:51.030Z,964.89
2019-05-12T06:55:43.386Z,964.98
2019-05-12T06:56:43.505Z,964.94
2019-05-12T06:57:45.852Z,964.99
2019-05-12T06:58:44.228Z,965.04
2019-05-12T06:59:50.546Z,965.05
2019-05-12T07:00:43.769Z,965.08
2019-05-12T07:01:42.012Z,965.08
2019-05-12T07:02:49.998Z,964.98
2019-05-12T07:03:44.037Z,965.07
2019-05-12T07:04:47.488Z,965.06
2019-05-12T07:05:45.201Z,965.10
2019-05-12T07:06:44.095Z,965.12
2019-05-12T07:07:45.781Z,965.16
2019-05-12T07:08:43.867Z,965.19
2019-05-12T07:09:52.001Z,965.23
2019-05-12T07:10:46.510Z,965.17
2019-05-12T07:11:52.985Z,965.28
2019-05-12T07:12:58.259Z,965.32
2019-05-12T07:13:43.623Z,965.26
2019-05-12T07:14:43.803Z,965.24
2019-05-12T07:15:43.747Z,965.29
2019-05-12T07:16:43.574Z,965.34
2019-05-12T07:17:44.128Z,965.26
2019-05-12T07:18:43.760Z,965.28
2019-05-12T07:19:43.597Z,965.34
2019-05-12T07:20:43.590Z,965.36
2019-05-12T07:21:43.885Z,965.37
2019-05-12T07:22:45.879Z,965.35
2019-05-12T07:23:44.488Z,965.39
2019-05-12T07:24:50.029Z,965.36
2019-05-12T07:25:44.516Z,965.44
2019-05-12T07:26:44.130Z,965.38
2019-05-12T07:27:45.696Z,965.43
2019-05-12T07:28:43.334Z,965.43
2019-05-12T07:29:43.600Z,965.51
2019-05-12T07:30:43.896Z,965.47
2019-05-12T07:31:44.063Z,965.50
2019-05-12T07:32:43.324Z,965.49
2019-05-12T07:33:43.354Z,965.52
2019-05-12T07:34:43.652Z,965.61
2019-05-12T07:35:44.286Z,965.60
2019-05-12T07:36:41.653Z,965.60
2019-05-12T07:37:43.643Z,965.61
2019-05-12T07:38:43.432Z,965.64
2019-05-12T07:39:47.862Z,965.59
2019-05-12T07:40:44.298Z,965.60
2019-05-12T07:41:50.411Z,965.61
2019-05-12T07:42:43.836Z,965.65
2019-05-12T07:43:44.156Z,965.61
2019-05-12T07:44:44.051Z,965.73
2019-05-12T07:45:41.538Z,965.65
2019-05-12T07:46:45.704Z,965.69
2019-05-12T07:47:44.786Z,965.74
2019-05-12T07:48:48.915Z,965.71
2019-05-12T07:49:44.084Z,965.71
2019-05-12T07:50:43.301Z,965.74
2019-05-12T07:51:41.486Z,965.77
2019-05-12T07:52:44.028Z,965.71
2019-05-12T07:53:48.098Z,965.84
2019-05-12T07:54:44.454Z,965.84
2019-05-12T07:55:45.387Z,965.86
2019-05-12T07:56:44.175Z,965.83
2019-05-12T07:57:53.041Z,965.85
2019-05-12T07:58:49.071Z,965.85
2019-05-12T07:59:43.826Z,965.92
2019-05-12T08:00:41.400Z,965.84
2019-05-12T08:01:46.645Z,965.84
2019-05-12T08:02:44.396Z,965.83
2019-05-12T08:03:43.526Z,965.85
2019-05-12T08:04:43.888Z,965.89
2019-05-12T08:05:43.771Z,965.89
2019-05-12T08:06:42.446Z,965.90
2019-05-12T08:07:44.412Z,965.93
2019-05-12T08:08:50.292Z,965.90
2019-05-12T08:09:43.222Z,965.97
2019-05-12T08:10:41.285Z,965.91
2019-05-12T08:11:43.339Z,966.02
2019-05-12T08:12:41.267Z,965.91
2019-05-12T08:13:43.659Z,965.93
2019-05-12T08:14:43.828Z,965.95
2019-05-12T08:15:45.739Z,965.95
2019-05-12T08:16:43.708Z,965.94
2019-05-12T08:17:41.213Z,965.98
2019-05-12T08:18:41.233Z,966.02
2019-05-12T08:19:41.163Z,966.05
2019-05-12T08:20:43.382Z,966.06
2019-05-12T08:21:46.557Z,966.05
2019-05-12T08:22:43.835Z,966.09
2019-05-12T08:23:41.126Z,966.08
2019-05-12T08:24:43.255Z,966.05
2019-05-12T08:25:43.472Z,966.05
2019-05-12T08:26:43.422Z,966.07
2019-05-12T08:27:45.243Z,966.08
2019-05-12T08:28:44.247Z,966.12
2019-05-12T08:29:42.833Z,966.18
2019-05-12T08:30:47.314Z,966.11
2019-05-12T08:31:44.087Z,966.14
2019-05-12T08:32:41.019Z,966.21
2019-05-12T08:33:43.458Z,966.16
2019-05-12T08:34:43.606Z,966.21
2019-05-12T08:35:40.982Z,966.27
2019-05-12T08:36:45.081Z,966.22
2019-05-12T08:37:44.143Z,966.28
2019-05-12T08:38:40.975Z,966.26
2019-05-12T08:39:40.971Z,966.32
2019-05-12T08:40:48.762Z,966.32
2019-05-12T08:41:44.263Z,966.41
2019-05-12T08:42:43.418Z,966.37
2019-05-12T08:43:47.141Z,966.44
2019-05-12T08:44:43.965Z,966.45
2019-05-12T08:45:44.116Z,966.39
2019-05-12T08:46:43.138Z,966.41
2019-05-12T08:47:43.862Z,966.36
2019-05-12T08:48:40.864Z,966.44
2019-05-12T08:49:49.980Z,966.50
2019-05-12T08:50:45.328Z,966.50
2019-05-12T08:51:40.810Z,966.48
2019-05-12T08:52:41.979Z,966.51
2019-05-12T08:53:43.979Z,966.50
2019-05-12T08:54:47.673Z,966.54
2019-05-12T08:55:43.577Z,966.53
2019-05-12T08:56:40.760Z,966.60
2019-05-12T08:57:46.486Z,966.60
2019-05-12T08:58:48.189Z,966.66
2019-05-12T08:59:43.999Z,966.67
2019-05-12T09:00:48.223Z,966.71
2019-05-12T09:01:43.711Z,966.69
2019-05-12T09:02:46.057Z,966.69
2019-05-12T09:03:44.106Z,966.71
2019-05-12T09:04:45.304Z,966.73
2019-05-12T09:05:41.770Z,966.75
2019-05-12T09:06:40.748Z,966.74
2019-05-12T09:07:40.710Z,966.72
2019-05-12T09:08:44.778Z,966.78
2019-05-12T09:09:43.823Z,966.74
2019-05-12T09:10:40.608Z,966.83
2019-05-12T09:11:40.622Z,966.82
2019-05-12T09:12:40.709Z,966.86
2019-05-12T09:13:43.323Z,966.91
2019-05-12T09:14:41.454Z,966.93
2019-05-12T09:15:40.540Z,966.96
2019-05-12T09:16:40.538Z,966.93
2019-05-12T09:17:49.268Z,966.88
2019-05-12T09:18:43.447Z,966.94
2019-05-12T09:19:40.531Z,967.00
2019-05-12T09:20:48.719Z,967.00
2019-05-12T09:21:44.043Z,967.01
2019-05-12T09:22:40.466Z,967.04
2019-05-12T09:23:41.588Z,967.08
2019-05-12T09:24:40.463Z,967.04
2019-05-12T09:25:45.239Z,967.08
2019-05-12T09:26:43.389Z,967.12
2019-05-12T09:27:47.992Z,967.12
2019-05-12T09:28:49.305Z,967.19
2019-05-12T09:29:43.454Z,967.10
2019-05-12T09:30:45.838Z,967.22
2019-05-12T09:31:41.368Z,967.16
2019-05-12T09:32:45.426Z,967.19
2019-05-12T09:33:41.442Z,967.18
2019-05-12T09:34:46.896Z,967.21
2019-05-12T09:35:43.570Z,967.26
2019-05-12T09:36:40.318Z,967.23
2019-05-12T09:37:40.654Z,967.29
2019-05-12T09:38:41.076Z,967.26
2019-05-12T09:39:43.582Z,967.25
2019-05-12T09:40:43.540Z,967.29
2019-05-12T09:41:43.926Z,967.27
2019-05-12T09:42:44.021Z,967.38
2019-05-12T09:43:45.536Z,967.38
2019-05-12T09:44:42.001Z,967.34
2019-05-12T09:45:51.387Z,967.36
2019-05-12T09:46:41.217Z,967.36
2019-05-12T09:47:40.209Z,967.35
2019-05-12T09:48:45.647Z,967.38
2019-05-12T09:49:41.176Z,967.41
2019-05-12T09:50:43.457Z,967.39
2019-05-12T09:51:42.896Z,967.43
2019-05-12T09:52:40.147Z,967.40
2019-05-12T09:53:42.848Z,967.42
2019-05-12T09:54:41.189Z,967.42
2019-05-12T09:55:40.125Z,967.49
2019-05-12T09:56:41.280Z,967.47
2019-05-12T09:57:41.105Z,967.50
2019-05-12T09:58:40.165Z,967.46
2019-05-12T09:59:40.071Z,967.50
2019-05-12T10:00:40.084Z,967.48
2019-05-12T10:01:43.099Z,967.52
2019-05-12T10:02:43.129Z,967.43
2019-05-12T10:03:40.205Z,967.49
2019-05-12T10:04:40.025Z,967.51
2019-05-12T10:05:41.365Z,967.50
2019-05-12T10:06:39.985Z,967.49
2019-05-12T10:07:39.986Z,967.55
2019-05-12T10:08:39.966Z,967.51
2019-05-12T10:09:39.956Z,967.55
2019-05-12T10:10:40.769Z,967.59
2019-05-12T10:11:39.993Z,967.58
2019-05-12T10:12:46.479Z,967.63
2019-05-12T10:13:40.915Z,967.65
2019-05-12T10:14:40.715Z,967.67
2019-05-12T10:15:40.886Z,967.63
2019-05-12T10:16:45.713Z,967.64
2019-05-12T10:17:43.267Z,967.60
2019-05-12T10:18:43.046Z,967.63
2019-05-12T10:19:40.855Z,967.62
2019-05-12T10:20:40.081Z,967.66
2019-05-12T10:21:39.942Z,967.71
2019-05-12T10:22:40.461Z,967.71
2019-05-12T10:23:39.806Z,967.70
2019-05-12T10:24:43.000Z,967.74
2019-05-12T10:25:40.773Z,967.69
2019-05-12T10:26:41.107Z,967.66
2019-05-12T10:27:40.756Z,967.74
2019-05-12T10:28:43.715Z,967.66
2019-05-12T10:29:40.733Z,967.73
2019-05-12T10:30:39.725Z,967.70
2019-05-12T10:31:39.893Z,967.71
2019-05-12T10:32:39.731Z,967.68
2019-05-12T10:33:39.693Z,967.70
2019-05-12T10:34:40.436Z,967.72
2019-05-12T10:35:39.663Z,967.70
2019-05-12T10:36:44.906Z,967.82
2019-05-12T10:37:40.705Z,967.74
2019-05-12T10:38:39.650Z,967.75
2019-05-12T10:39:39.631Z,967.74
2019-05-12T10:40:40.633Z,967.67
2019-05-12T10:41:39.663Z,967.77
2019-05-12T10:42:44.713Z,967.75
2019-05-12T10:43:40.599Z,967.79
2019-05-12T10:44:40.885Z,967.84
2019-05-12T10:45:39.581Z,967.82
2019-05-12T10:46:42.304Z,967.79
2019-05-12T10:47:39.540Z,967.83
2019-05-12T10:48:39.572Z,967.84
2019-05-12T10:49:39.536Z,967.83
2019-05-12T10:50:39.511Z,967.82
2019-05-12T10:51:39.511Z,967.86
2019-05-12T10:52:39.500Z,967.88
2019-05-12T10:53:39.480Z,967.92
2019-05-12T10:54:39.489Z,967.90
2019-05-12T10:55:39.458Z,967.90
2019-05-12T10:56:39.461Z,967.91
2019-05-12T10:57:39.431Z,967.93
2019-05-12T10:58:39.430Z,967.89
2019-05-12T10:59:45.229Z,967.87
2019-05-12T11:00:40.398Z,967.93
2019-05-12T11:01:47.190Z,967.92
2019-05-12T11:02:40.404Z,967.95
2019-05-12T11:03:42.989Z,967.96
2019-05-12T11:04:41.304Z,968.01
2019-05-12T11:05:39.348Z,968.02
2019-05-12T11:06:39.806Z,967.93
2019-05-12T11:07:39.339Z,968.03
2019-05-12T11:08:41.319Z,967.98
2019-05-12T11:09:40.300Z,967.98
2019-05-12T11:10:39.293Z,968.03
2019-05-12T11:11:42.342Z,967.99
2019-05-12T11:12:40.390Z,967.99
2019-05-12T11:13:40.230Z,967.96
2019-05-12T11:14:40.249Z,968.01
2019-05-12T11:15:39.688Z,967.96
2019-05-12T11:16:42.498Z,968.05
2019-05-12T11:17:40.229Z,968.03
2019-05-12T11:18:39.209Z,968.04
2019-05-12T11:19:40.902Z,968.06
2019-05-12T11:20:40.179Z,968.07
2019-05-12T11:21:39.172Z,968.04
2019-05-12T11:22:39.178Z,968.12
2019-05-12T11:23:39.164Z,968.15
2019-05-12T11:24:39.136Z,968.10
2019-05-12T11:25:39.126Z,968.13
2019-05-12T11:26:39.110Z,968.12
2019-05-12T11:27:39.128Z,968.09
2019-05-12T11:28:39.094Z,968.14
2019-05-12T11:29:46.294Z,968.18
2019-05-12T11:30:40.087Z,968.21
2019-05-12T11:31:39.077Z,968.11
2019-05-12T11:32:39.107Z,968.22
2019-05-12T11:33:39.040Z,968.11
2019-05-12T11:34:39.019Z,968.18
2019-05-12T11:35:39.017Z,968.20
2019-05-12T11:36:39.005Z,968.17
2019-05-12T11:37:39.221Z,968.29
2019-05-12T11:38:38.996Z,968.25
2019-05-12T11:39:44.312Z,968.32
2019-05-12T11:40:39.960Z,968.29
2019-05-12T11:41:38.960Z,968.28
2019-05-12T11:42:38.938Z,968.27
2019-05-12T11:43:38.940Z,968.26
2019-05-12T11:44:38.926Z,968.30
2019-05-12T11:45:38.915Z,968.32
2019-05-12T11:46:38.916Z,968.38
2019-05-12T11:47:38.888Z,968.43
2019-05-12T11:48:40.403Z,968.36
2019-05-12T11:49:39.865Z,968.38
2019-05-12T11:50:40.541Z,968.45
2019-05-12T11:51:39.843Z,968.48
2019-05-12T11:52:38.827Z,968.43
2019-05-12T11:53:39.077Z,968.45
2019-05-12T11:54:41.146Z,968.42
2019-05-12T11:55:39.786Z,968.46
2019-05-12T11:56:40.370Z,968.48
2019-05-12T11:57:39.773Z,968.39
2019-05-12T11:58:41.258Z,968.40
2019-05-12T11:59:39.747Z,968.33
2019-05-12T12:00:38.741Z,968.35
2019-05-12T12:01:39.625Z,968.49
2019-05-12T12:02:39.737Z,968.44
2019-05-12T12:03:38.719Z,968.50
2019-05-12T12:04:38.697Z,968.46
2019-05-12T12:05:38.745Z,968.49
2019-05-12T12:06:38.675Z,968.51
2019-05-12T12:07:45.717Z,968.44
2019-05-12T12:08:39.690Z,968.46
2019-05-12T12:09:38.658Z,968.53
2019-05-12T12:10:40.030Z,968.54
2019-05-12T12:11:38.629Z,968.59
2019-05-12T12:12:39.629Z,968.58
2019-05-12T12:13:40.403Z,968.57
2019-05-12T12:14:40.187Z,968.61
2019-05-12T12:15:39.575Z,968.62
2019-05-12T12:16:44.250Z,968.63
2019-05-12T12:17:39.546Z,968.60
2019-05-12T12:18:38.546Z,968.59
2019-05-12T12:19:43.880Z,968.62
2019-05-12T12:20:39.536Z,968.68
2019-05-12T12:21:40.363Z,968.59
2019-05-12T12:22:39.504Z,968.61
2019-05-12T12:23:40.858Z,968.68
2019-05-12T12:24:39.514Z,968.68
2019-05-12T12:25:43.095Z,968.73
2019-05-12T12:26:39.447Z,968.76
2019-05-12T12:27:38.503Z,968.75
2019-05-12T12:28:38.448Z,968.75